sensor_id;sensor_type;location;lat;lon;timestamp;temperature;humidity
27823;DHT22;29019;47.630;8.262;2023-03-26T00:03:03;20.10;36.20
27823;DHT22;29019;47.630;8.262;2023-03-26T00:07:04;20.10;36.20
27823;DHT22;29019;47.630;8.262;2023-03-26T00:11:05;20.10;36.20
27823;DHT22;29019;47.630;8.262;2023-03-26T00:15:06;20.00;36.20
27823;DHT22;29019;47.630;8.262;2023-03-26T00:19:07;20.00;36.20
27823;DHT22;29019;47.630;8.262;2023-03-26T00:23:08;20.00;36.20
27823;DHT22;29019;47.630;8.262;2023-03-26T00:27:08;20.00;36.20
27823;DHT22;29019;47.630;8.262;2023-03-26T00:31:13;20.00;36.20
27823;DHT22;29019;47.630;8.262;2023-03-26T00:35:13;20.00;36.20
27823;DHT22;29019;47.630;8.262;2023-03-26T00:39:14;20.00;36.20
27823;DHT22;29019;47.630;8.262;2023-03-26T00:43:14;20.00;36.20
27823;DHT22;29019;47.630;8.262;2023-03-26T00:47:18;20.00;36.20
27823;DHT22;29019;47.630;8.262;2023-03-26T00:51:19;19.90;36.20
27823;DHT22;29019;47.630;8.262;2023-03-26T00:55:19;19.90;36.20
27823;DHT22;29019;47.630;8.262;2023-03-26T00:59:21;19.90;36.20
27823;DHT22;29019;47.630;8.262;2023-03-26T01:03:22;20.00;36.30
27823;DHT22;29019;47.630;8.262;2023-03-26T01:07:24;19.90;36.30
27823;DHT22;29019;47.630;8.262;2023-03-26T01:11:31;19.90;36.30
27823;DHT22;29019;47.630;8.262;2023-03-26T01:15:32;19.90;36.30
27823;DHT22;29019;47.630;8.262;2023-03-26T01:19:52;19.90;36.30
27823;DHT22;29019;47.630;8.262;2023-03-26T01:23:57;19.90;36.30
27823;DHT22;29019;47.630;8.262;2023-03-26T01:27:58;19.90;36.30
27823;DHT22;29019;47.630;8.262;2023-03-26T01:36:16;19.80;36.30
27823;DHT22;29019;47.630;8.262;2023-03-26T01:40:22;19.80;36.30
27823;DHT22;29019;47.630;8.262;2023-03-26T01:48:29;19.80;36.30
27823;DHT22;29019;47.630;8.262;2023-03-26T01:52:30;19.80;36.30
27823;DHT22;29019;47.630;8.262;2023-03-26T02:00:47;19.80;36.30
27823;DHT22;29019;47.630;8.262;2023-03-26T02:08:54;19.80;36.30
27823;DHT22;29019;47.630;8.262;2023-03-26T02:12:56;19.80;36.30
27823;DHT22;29019;47.630;8.262;2023-03-26T02:16:58;19.80;36.30
27823;DHT22;29019;47.630;8.262;2023-03-26T02:20:59;19.70;36.30
27823;DHT22;29019;47.630;8.262;2023-03-26T02:25:00;19.70;36.30
27823;DHT22;29019;47.630;8.262;2023-03-26T02:29:00;19.70;36.30
27823;DHT22;29019;47.630;8.262;2023-03-26T02:33:01;19.70;36.30
27823;DHT22;29019;47.630;8.262;2023-03-26T02:37:01;19.70;36.40
27823;DHT22;29019;47.630;8.262;2023-03-26T02:41:02;19.70;36.40
27823;DHT22;29019;47.630;8.262;2023-03-26T02:45:03;19.70;36.30
27823;DHT22;29019;47.630;8.262;2023-03-26T02:49:03;19.70;36.30
27823;DHT22;29019;47.630;8.262;2023-03-26T02:53:04;19.70;36.30
27823;DHT22;29019;47.630;8.262;2023-03-26T02:57:05;19.70;36.30
27823;DHT22;29019;47.630;8.262;2023-03-26T03:01:06;19.60;36.30
27823;DHT22;29019;47.630;8.262;2023-03-26T03:05:07;19.60;36.30
27823;DHT22;29019;47.630;8.262;2023-03-26T03:09:07;19.60;36.30
27823;DHT22;29019;47.630;8.262;2023-03-26T03:13:08;19.60;36.30
27823;DHT22;29019;47.630;8.262;2023-03-26T03:17:08;19.60;36.40
27823;DHT22;29019;47.630;8.262;2023-03-26T03:21:08;19.60;36.40
27823;DHT22;29019;47.630;8.262;2023-03-26T03:25:09;19.60;36.40
27823;DHT22;29019;47.630;8.262;2023-03-26T03:29:13;19.60;36.40
27823;DHT22;29019;47.630;8.262;2023-03-26T03:33:13;19.60;36.30
27823;DHT22;29019;47.630;8.262;2023-03-26T03:37:14;19.60;36.40
27823;DHT22;29019;47.630;8.262;2023-03-26T03:41:15;19.60;36.40
27823;DHT22;29019;47.630;8.262;2023-03-26T03:45:17;19.60;36.40
27823;DHT22;29019;47.630;8.262;2023-03-26T03:49:18;19.60;36.40
27823;DHT22;29019;47.630;8.262;2023-03-26T03:53:19;19.60;36.40
27823;DHT22;29019;47.630;8.262;2023-03-26T03:57:19;19.60;36.40
27823;DHT22;29019;47.630;8.262;2023-03-26T04:01:21;19.60;36.40
27823;DHT22;29019;47.630;8.262;2023-03-26T04:05:21;19.60;36.50
27823;DHT22;29019;47.630;8.262;2023-03-26T04:09:22;19.60;36.50
27823;DHT22;29019;47.630;8.262;2023-03-26T04:13:23;19.60;36.60
27823;DHT22;29019;47.630;8.262;2023-03-26T04:17:23;19.70;36.60
27823;DHT22;29019;47.630;8.262;2023-03-26T04:21:24;19.80;36.60
27823;DHT22;29019;47.630;8.262;2023-03-26T04:25:25;19.90;36.50
27823;DHT22;29019;47.630;8.262;2023-03-26T04:29:29;20.00;36.10
27823;DHT22;29019;47.630;8.262;2023-03-26T04:33:33;20.00;36.40
27823;DHT22;29019;47.630;8.262;2023-03-26T04:37:38;20.10;36.90
27823;DHT22;29019;47.630;8.262;2023-03-26T04:41:39;20.20;36.20
27823;DHT22;29019;47.630;8.262;2023-03-26T04:45:39;20.30;36.30
27823;DHT22;29019;47.630;8.262;2023-03-26T04:49:40;20.30;36.30
27823;DHT22;29019;47.630;8.262;2023-03-26T04:53:40;20.30;36.20
27823;DHT22;29019;47.630;8.262;2023-03-26T04:57:41;20.30;36.20
27823;DHT22;29019;47.630;8.262;2023-03-26T05:01:45;20.40;36.40
27823;DHT22;29019;47.630;8.262;2023-03-26T05:05:45;20.40;36.30
27823;DHT22;29019;47.630;8.262;2023-03-26T05:09:48;20.40;36.20
27823;DHT22;29019;47.630;8.262;2023-03-26T05:13:49;20.40;36.00
27823;DHT22;29019;47.630;8.262;2023-03-26T05:17:49;20.40;36.10
27823;DHT22;29019;47.630;8.262;2023-03-26T05:21:52;20.30;36.10
27823;DHT22;29019;47.630;8.262;2023-03-26T05:25:52;20.30;36.10
27823;DHT22;29019;47.630;8.262;2023-03-26T05:29:58;20.30;36.10
27823;DHT22;29019;47.630;8.262;2023-03-26T05:33:59;20.30;36.10
27823;DHT22;29019;47.630;8.262;2023-03-26T05:37:59;20.20;36.00
27823;DHT22;29019;47.630;8.262;2023-03-26T05:42:00;20.20;36.10
27823;DHT22;29019;47.630;8.262;2023-03-26T05:46:00;20.20;36.30
27823;DHT22;29019;47.630;8.262;2023-03-26T05:50:01;20.20;36.30
27823;DHT22;29019;47.630;8.262;2023-03-26T05:54:01;20.20;36.20
27823;DHT22;29019;47.630;8.262;2023-03-26T05:58:02;20.20;36.20
27823;DHT22;29019;47.630;8.262;2023-03-26T06:02:02;20.20;36.20
27823;DHT22;29019;47.630;8.262;2023-03-26T06:06:05;20.20;36.20
27823;DHT22;29019;47.630;8.262;2023-03-26T06:10:06;20.20;36.30
27823;DHT22;29019;47.630;8.262;2023-03-26T06:14:06;20.30;36.30
27823;DHT22;29019;47.630;8.262;2023-03-26T06:18:07;20.30;36.30
27823;DHT22;29019;47.630;8.262;2023-03-26T06:22:07;20.40;36.30
27823;DHT22;29019;47.630;8.262;2023-03-26T06:26:08;20.40;36.20
27823;DHT22;29019;47.630;8.262;2023-03-26T06:30:08;20.40;36.30
27823;DHT22;29019;47.630;8.262;2023-03-26T06:34:09;20.50;36.40
27823;DHT22;29019;47.630;8.262;2023-03-26T06:38:10;20.50;36.10
27823;DHT22;29019;47.630;8.262;2023-03-26T06:42:10;20.50;36.10
27823;DHT22;29019;47.630;8.262;2023-03-26T06:46:11;20.50;36.20
27823;DHT22;29019;47.630;8.262;2023-03-26T06:50:12;20.50;36.20
27823;DHT22;29019;47.630;8.262;2023-03-26T06:54:13;20.50;36.20
27823;DHT22;29019;47.630;8.262;2023-03-26T06:58:13;20.50;36.20
27823;DHT22;29019;47.630;8.262;2023-03-26T07:02:13;20.50;36.20
27823;DHT22;29019;47.630;8.262;2023-03-26T07:06:14;20.40;36.10
27823;DHT22;29019;47.630;8.262;2023-03-26T07:10:15;20.40;36.20
27823;DHT22;29019;47.630;8.262;2023-03-26T07:14:15;20.40;36.40
27823;DHT22;29019;47.630;8.262;2023-03-26T07:18:16;20.40;36.20
27823;DHT22;29019;47.630;8.262;2023-03-26T07:22:20;20.40;36.20
27823;DHT22;29019;47.630;8.262;2023-03-26T07:26:25;20.40;36.30
27823;DHT22;29019;47.630;8.262;2023-03-26T07:34:33;20.30;36.30
27823;DHT22;29019;47.630;8.262;2023-03-26T07:46:57;20.30;36.40
27823;DHT22;29019;47.630;8.262;2023-03-26T07:51:00;20.30;36.40
27823;DHT22;29019;47.630;8.262;2023-03-26T07:55:02;20.30;36.50
27823;DHT22;29019;47.630;8.262;2023-03-26T08:07:36;20.40;36.50
27823;DHT22;29019;47.630;8.262;2023-03-26T08:11:46;20.40;36.40
27823;DHT22;29019;47.630;8.262;2023-03-26T08:16:06;20.50;36.30
27823;DHT22;29019;47.630;8.262;2023-03-26T08:20:20;20.60;36.30
27823;DHT22;29019;47.630;8.262;2023-03-26T08:32:57;20.60;36.40
27823;DHT22;29019;47.630;8.262;2023-03-26T08:36:58;20.60;36.40
27823;DHT22;29019;47.630;8.262;2023-03-26T08:57:47;20.60;36.60
27823;DHT22;29019;47.630;8.262;2023-03-26T09:01:57;20.60;36.70
27823;DHT22;29019;47.630;8.262;2023-03-26T09:31:44;20.60;36.90
27823;DHT22;29019;47.630;8.262;2023-03-26T09:35:50;20.60;36.90
27823;DHT22;29019;47.630;8.262;2023-03-26T09:40:02;20.60;37.00
27823;DHT22;29019;47.630;8.262;2023-03-26T09:52:25;20.60;37.00
27823;DHT22;29019;47.630;8.262;2023-03-26T10:08:49;20.60;37.10
27823;DHT22;29019;47.630;8.262;2023-03-26T10:12:51;20.60;37.20
27823;DHT22;29019;47.630;8.262;2023-03-26T10:17:02;20.60;37.10
27823;DHT22;29019;47.630;8.262;2023-03-26T10:21:06;20.60;37.10
27823;DHT22;29019;47.630;8.262;2023-03-26T10:29:19;20.60;37.20
27823;DHT22;29019;47.630;8.262;2023-03-26T10:33:38;20.60;37.10
27823;DHT22;29019;47.630;8.262;2023-03-26T10:41:48;20.70;37.20
27823;DHT22;29019;47.630;8.262;2023-03-26T10:58:24;20.70;37.10
27823;DHT22;29019;47.630;8.262;2023-03-26T11:02:37;20.70;37.00
27823;DHT22;29019;47.630;8.262;2023-03-26T11:06:48;20.70;37.00
27823;DHT22;29019;47.630;8.262;2023-03-26T11:10:54;20.70;36.90
27823;DHT22;29019;47.630;8.262;2023-03-26T11:19:15;20.70;36.90
27823;DHT22;29019;47.630;8.262;2023-03-26T11:23:27;20.70;36.80
27823;DHT22;29019;47.630;8.262;2023-03-26T11:27:34;20.70;36.90
27823;DHT22;29019;47.630;8.262;2023-03-26T11:35:59;20.80;36.80
27823;DHT22;29019;47.630;8.262;2023-03-26T11:40:01;20.90;36.70
27823;DHT22;29019;47.630;8.262;2023-03-26T11:44:11;20.90;36.60
27823;DHT22;29019;47.630;8.262;2023-03-26T11:52:29;21.10;36.80
27823;DHT22;29019;47.630;8.262;2023-03-26T11:56:31;21.10;36.60
27823;DHT22;29019;47.630;8.262;2023-03-26T12:00:32;21.20;36.60
27823;DHT22;29019;47.630;8.262;2023-03-26T12:04:40;21.20;36.60
27823;DHT22;29019;47.630;8.262;2023-03-26T12:08:41;21.20;36.60
27823;DHT22;29019;47.630;8.262;2023-03-26T12:12:42;21.20;36.60
27823;DHT22;29019;47.630;8.262;2023-03-26T12:17:02;21.20;36.50
27823;DHT22;29019;47.630;8.262;2023-03-26T12:25:15;21.20;36.50
27823;DHT22;29019;47.630;8.262;2023-03-26T12:29:16;21.30;36.50
27823;DHT22;29019;47.630;8.262;2023-03-26T12:33:23;21.30;36.60
27823;DHT22;29019;47.630;8.262;2023-03-26T12:37:37;21.20;36.40
27823;DHT22;29019;47.630;8.262;2023-03-26T12:41:41;21.20;36.40
27823;DHT22;29019;47.630;8.262;2023-03-26T12:45:41;21.30;36.90
27823;DHT22;29019;47.630;8.262;2023-03-26T12:49:42;21.30;36.30
27823;DHT22;29019;47.630;8.262;2023-03-26T12:57:54;21.30;36.30
27823;DHT22;29019;47.630;8.262;2023-03-26T13:02:16;21.30;36.20
27823;DHT22;29019;47.630;8.262;2023-03-26T13:06:28;21.30;36.20
27823;DHT22;29019;47.630;8.262;2023-03-26T13:10:37;21.30;36.10
27823;DHT22;29019;47.630;8.262;2023-03-26T13:19:25;21.30;36.00
27823;DHT22;29019;47.630;8.262;2023-03-26T13:27:43;21.20;35.80
27823;DHT22;29019;47.630;8.262;2023-03-26T13:32:04;21.20;35.90
27823;DHT22;29019;47.630;8.262;2023-03-26T13:36:16;21.20;35.80
27823;DHT22;29019;47.630;8.262;2023-03-26T13:40:21;21.20;35.90
27823;DHT22;29019;47.630;8.262;2023-03-26T13:44:36;21.20;35.80
27823;DHT22;29019;47.630;8.262;2023-03-26T13:48:43;21.20;35.70
27823;DHT22;29019;47.630;8.262;2023-03-26T13:52:59;21.20;35.80
27823;DHT22;29019;47.630;8.262;2023-03-26T13:57:06;21.20;35.90
27823;DHT22;29019;47.630;8.262;2023-03-26T14:01:09;21.20;35.80
27823;DHT22;29019;47.630;8.262;2023-03-26T14:05:23;21.20;35.80
27823;DHT22;29019;47.630;8.262;2023-03-26T14:09:29;21.20;35.80
27823;DHT22;29019;47.630;8.262;2023-03-26T14:13:32;21.20;35.80
27823;DHT22;29019;47.630;8.262;2023-03-26T14:17:48;21.10;35.80
27823;DHT22;29019;47.630;8.262;2023-03-26T14:39:07;21.10;36.10
27823;DHT22;29019;47.630;8.262;2023-03-26T14:47:31;21.00;36.10
27823;DHT22;29019;47.630;8.262;2023-03-26T15:16:56;21.20;36.30
27823;DHT22;29019;47.630;8.262;2023-03-26T15:21:27;21.30;36.30
27823;DHT22;29019;47.630;8.262;2023-03-26T15:42:53;21.30;36.70
27823;DHT22;29019;47.630;8.262;2023-03-26T15:51:13;21.30;36.10
27823;DHT22;29019;47.630;8.262;2023-03-26T16:08:11;21.20;36.10
27823;DHT22;29019;47.630;8.262;2023-03-26T16:12:29;21.20;36.20
27823;DHT22;29019;47.630;8.262;2023-03-26T16:16:51;21.10;36.10
27823;DHT22;29019;47.630;8.262;2023-03-26T16:20:52;21.10;35.90
27823;DHT22;29019;47.630;8.262;2023-03-26T16:25:11;21.10;36.00
27823;DHT22;29019;47.630;8.262;2023-03-26T16:29:23;21.10;36.00
27823;DHT22;29019;47.630;8.262;2023-03-26T16:33:34;21.10;36.00
27823;DHT22;29019;47.630;8.262;2023-03-26T16:46:01;21.00;35.90
27823;DHT22;29019;47.630;8.262;2023-03-26T16:58:29;21.00;35.90
27823;DHT22;29019;47.630;8.262;2023-03-26T17:11:00;21.00;36.00
27823;DHT22;29019;47.630;8.262;2023-03-26T17:15:04;21.00;36.00
27823;DHT22;29019;47.630;8.262;2023-03-26T17:19:19;21.00;35.90
27823;DHT22;29019;47.630;8.262;2023-03-26T17:32:03;21.20;35.90
27823;DHT22;29019;47.630;8.262;2023-03-26T17:40:40;21.20;35.80
27823;DHT22;29019;47.630;8.262;2023-03-26T17:44:52;21.20;35.70
27823;DHT22;29019;47.630;8.262;2023-03-26T17:53:16;21.20;35.70
27823;DHT22;29019;47.630;8.262;2023-03-26T17:57:22;21.20;35.70
27823;DHT22;29019;47.630;8.262;2023-03-26T18:01:34;21.20;35.70
27823;DHT22;29019;47.630;8.262;2023-03-26T18:05:36;21.10;35.70
27823;DHT22;29019;47.630;8.262;2023-03-26T18:17:45;21.10;35.60
27823;DHT22;29019;47.630;8.262;2023-03-26T18:21:47;21.10;35.60
27823;DHT22;29019;47.630;8.262;2023-03-26T18:25:54;21.00;35.60
27823;DHT22;29019;47.630;8.262;2023-03-26T18:33:58;21.00;35.70
27823;DHT22;29019;47.630;8.262;2023-03-26T18:38:02;21.00;35.60
27823;DHT22;29019;47.630;8.262;2023-03-26T18:42:03;20.90;35.60
27823;DHT22;29019;47.630;8.262;2023-03-26T18:46:04;20.90;35.60
27823;DHT22;29019;47.630;8.262;2023-03-26T18:50:05;20.90;35.60
27823;DHT22;29019;47.630;8.262;2023-03-26T18:54:05;20.90;35.60
27823;DHT22;29019;47.630;8.262;2023-03-26T18:58:20;20.90;35.70
27823;DHT22;29019;47.630;8.262;2023-03-26T19:02:21;20.90;35.70
27823;DHT22;29019;47.630;8.262;2023-03-26T19:06:22;20.90;35.60
27823;DHT22;29019;47.630;8.262;2023-03-26T19:10:22;20.80;35.60
27823;DHT22;29019;47.630;8.262;2023-03-26T19:14:24;20.80;35.60
27823;DHT22;29019;47.630;8.262;2023-03-26T19:18:26;20.80;35.70
27823;DHT22;29019;47.630;8.262;2023-03-26T19:22:27;20.80;35.70
27823;DHT22;29019;47.630;8.262;2023-03-26T19:26:28;20.90;35.80
27823;DHT22;29019;47.630;8.262;2023-03-26T19:30:32;20.90;35.80
27823;DHT22;29019;47.630;8.262;2023-03-26T19:34:37;20.90;35.80
27823;DHT22;29019;47.630;8.262;2023-03-26T19:38:41;21.00;35.80
27823;DHT22;29019;47.630;8.262;2023-03-26T19:42:43;21.00;35.70
27823;DHT22;29019;47.630;8.262;2023-03-26T19:46:44;21.00;35.60
27823;DHT22;29019;47.630;8.262;2023-03-26T19:50:52;21.00;35.60
27823;DHT22;29019;47.630;8.262;2023-03-26T19:55:14;21.00;35.60
27823;DHT22;29019;47.630;8.262;2023-03-26T19:59:14;21.00;35.90
27823;DHT22;29019;47.630;8.262;2023-03-26T20:03:15;21.00;35.50
27823;DHT22;29019;47.630;8.262;2023-03-26T20:07:21;21.10;35.60
27823;DHT22;29019;47.630;8.262;2023-03-26T20:11:28;21.10;35.50
27823;DHT22;29019;47.630;8.262;2023-03-26T20:15:32;21.00;35.50
27823;DHT22;29019;47.630;8.262;2023-03-26T20:19:33;21.00;35.50
27823;DHT22;29019;47.630;8.262;2023-03-26T20:23:34;21.00;35.50
27823;DHT22;29019;47.630;8.262;2023-03-26T20:27:34;21.00;35.50
27823;DHT22;29019;47.630;8.262;2023-03-26T20:31:36;20.90;35.50
27823;DHT22;29019;47.630;8.262;2023-03-26T20:35:37;20.90;35.60
27823;DHT22;29019;47.630;8.262;2023-03-26T20:39:37;20.90;35.60
27823;DHT22;29019;47.630;8.262;2023-03-26T20:43:38;20.90;35.60
27823;DHT22;29019;47.630;8.262;2023-03-26T20:47:39;20.90;35.60
27823;DHT22;29019;47.630;8.262;2023-03-26T20:51:40;20.90;35.60
27823;DHT22;29019;47.630;8.262;2023-03-26T20:55:45;20.80;35.60
27823;DHT22;29019;47.630;8.262;2023-03-26T20:59:45;20.80;35.70
27823;DHT22;29019;47.630;8.262;2023-03-26T21:03:46;20.80;35.70
27823;DHT22;29019;47.630;8.262;2023-03-26T21:07:46;20.80;35.80
27823;DHT22;29019;47.630;8.262;2023-03-26T21:11:51;20.70;35.70
27823;DHT22;29019;47.630;8.262;2023-03-26T21:15:53;20.70;35.70
27823;DHT22;29019;47.630;8.262;2023-03-26T21:19:53;20.60;35.70
27823;DHT22;29019;47.630;8.262;2023-03-26T21:23:55;20.70;35.80
27823;DHT22;29019;47.630;8.262;2023-03-26T21:28:03;20.60;35.70
27823;DHT22;29019;47.630;8.262;2023-03-26T21:32:06;20.60;35.70
27823;DHT22;29019;47.630;8.262;2023-03-26T21:36:09;20.60;35.80
27823;DHT22;29019;47.630;8.262;2023-03-26T21:40:11;20.60;35.80
27823;DHT22;29019;47.630;8.262;2023-03-26T21:44:16;20.60;35.80
27823;DHT22;29019;47.630;8.262;2023-03-26T21:48:18;20.50;35.70
27823;DHT22;29019;47.630;8.262;2023-03-26T21:52:19;20.50;35.80
27823;DHT22;29019;47.630;8.262;2023-03-26T21:56:44;20.50;35.80
27823;DHT22;29019;47.630;8.262;2023-03-26T22:00:59;20.50;35.90
27823;DHT22;29019;47.630;8.262;2023-03-26T22:05:11;20.50;35.80
27823;DHT22;29019;47.630;8.262;2023-03-26T22:09:12;20.40;35.80
27823;DHT22;29019;47.630;8.262;2023-03-26T22:13:12;20.40;35.80
27823;DHT22;29019;47.630;8.262;2023-03-26T22:17:13;20.40;35.80
27823;DHT22;29019;47.630;8.262;2023-03-26T22:21:13;20.40;35.80
27823;DHT22;29019;47.630;8.262;2023-03-26T22:25:15;20.30;35.80
27823;DHT22;29019;47.630;8.262;2023-03-26T22:29:15;20.30;35.80
27823;DHT22;29019;47.630;8.262;2023-03-26T22:33:16;20.30;35.80
27823;DHT22;29019;47.630;8.262;2023-03-26T22:37:17;20.30;35.80
27823;DHT22;29019;47.630;8.262;2023-03-26T22:41:17;20.30;35.80
27823;DHT22;29019;47.630;8.262;2023-03-26T22:45:18;20.30;35.90
27823;DHT22;29019;47.630;8.262;2023-03-26T22:49:18;20.20;35.80
27823;DHT22;29019;47.630;8.262;2023-03-26T22:53:19;20.30;35.80
27823;DHT22;29019;47.630;8.262;2023-03-26T22:57:20;20.30;35.80
27823;DHT22;29019;47.630;8.262;2023-03-26T23:01:23;20.20;35.80
27823;DHT22;29019;47.630;8.262;2023-03-26T23:05:24;20.20;35.80
27823;DHT22;29019;47.630;8.262;2023-03-26T23:09:24;20.20;35.80
27823;DHT22;29019;47.630;8.262;2023-03-26T23:13:25;20.20;35.80
27823;DHT22;29019;47.630;8.262;2023-03-26T23:17:25;20.20;35.80
27823;DHT22;29019;47.630;8.262;2023-03-26T23:21:26;20.20;35.80
27823;DHT22;29019;47.630;8.262;2023-03-26T23:25:26;20.20;35.80
27823;DHT22;29019;47.630;8.262;2023-03-26T23:29:27;20.10;35.80
27823;DHT22;29019;47.630;8.262;2023-03-26T23:33:30;20.10;35.80
27823;DHT22;29019;47.630;8.262;2023-03-26T23:37:31;20.10;35.80
27823;DHT22;29019;47.630;8.262;2023-03-26T23:41:34;20.10;35.80
27823;DHT22;29019;47.630;8.262;2023-03-26T23:45:34;20.10;35.80
27823;DHT22;29019;47.630;8.262;2023-03-26T23:49:35;20.10;35.80
27823;DHT22;29019;47.630;8.262;2023-03-26T23:53:36;20.10;35.80
27823;DHT22;29019;47.630;8.262;2023-03-26T23:57:37;20.00;35.80
